METAR KGSO 192354Z 30003KT 3SM BR OVC002 01/01 A3012 RMK AO2 SLP205 60012 T00060006 10006 20000 55006 
METAR KGSO 192354Z 30003KT 3SM BR OVC002 01/01 A3012 RMK AO2 SLP205 60012 T00060006 10006 20000 55006 
METAR KGSO 192254Z 00000KT 1/2SM BR OVC002 01/01 A3011 RMK AO2 SFC VIS 4 SNE03 SLP201 P0000 T00060006 
METAR KGSO 192254Z 00000KT 1/2SM BR OVC002 01/01 A3011 RMK AO2 SFC VIS 4 SNE03 SLP201 P0000 T00060006 
SPECI KGSO 192222Z 00000KT 1/2SM BR BKN002 OVC100 01/01 A3009 RMK AO2 SFC VIS 1 1/2 SNE03 P0000 
SPECI KGSO 192222Z 00000KT 1/2SM BR BKN002 OVC100 01/01 A3009 RMK AO2 SFC VIS 1 1/2 SNE03 P0000 
SPECI KGSO 192200Z 17003KT 1/2SM -SN BR SCT002 BKN033 OVC095 01/01 A3010 RMK AO2 SFC VIS 3/4 P0000 
SPECI KGSO 192200Z 17003KT 1/2SM -SN BR SCT002 BKN033 OVC095 01/01 A3010 RMK AO2 SFC VIS 3/4 P0000 
METAR KGSO 192154Z 00000KT 1/2SM -SN FG BKN002 BKN018 OVC095 00/00 A3009 RMK AO2 PRESFR SLP195 P0003 T00000000 
METAR KGSO 192154Z 00000KT 1/2SM -SN FG BKN002 BKN018 OVC095 00/00 A3009 RMK AO2 PRESFR SLP195 P0003 T00000000 
METAR KGSO 192054Z 00000KT 1/4SM SN FG VV004 00/00 A3013 RMK AO2 TWR VIS 1/2 PRESFR SLP208 P0003 60009 T00000000 57000 
METAR KGSO 192054Z 00000KT 1/4SM SN FG VV004 00/00 A3013 RMK AO2 TWR VIS 1/2 PRESFR SLP208 P0003 60009 T00000000 57000 
SPECI KGSO 192040Z 00000KT 1/2SM SN FG OVC006 01/01 A3013 RMK AO2 PRESFR P0002 
SPECI KGSO 192040Z 00000KT 1/2SM SN FG OVC006 01/01 A3013 RMK AO2 PRESFR P0002 
SPECI KGSO 192016Z 00000KT 1/4SM SN FG OVC001 01/01 A3011 RMK AO2 TWR VIS 1/2 PRESFR P0001 
SPECI KGSO 192016Z 00000KT 1/4SM SN FG OVC001 01/01 A3011 RMK AO2 TWR VIS 1/2 PRESFR P0001 
METAR KGSO 191954Z 00000KT 1/2SM -SN FG OVC003 01/01 A3012 RMK AO2 TWR VIS 1 SLP206 P0003 T00060006 
METAR KGSO 191954Z 00000KT 1/2SM -SN FG OVC003 01/01 A3012 RMK AO2 TWR VIS 1 SLP206 P0003 T00060006 
METAR KGSO 191854Z 00000KT 3/4SM -SN BR OVC003 01/01 A3014 RMK AO2 TWR VIS 1 CIG 002V005 PRESFR SLP211 P0003 T00060006 
METAR KGSO 191854Z 00000KT 3/4SM -SN BR OVC003 01/01 A3014 RMK AO2 TWR VIS 1 CIG 002V005 PRESFR SLP211 P0003 T00060006 
METAR KGSO 191754Z 00000KT 1/2SM SN FG BKN003 OVC007 01/01 A3013 RMK AO2 TWR VIS 1 PRESFR SLP210 P0003 60005 T00060006 10044 20006 58025 
METAR KGSO 191754Z 00000KT 1/2SM SN FG BKN003 OVC007 01/01 A3013 RMK AO2 TWR VIS 1 PRESFR SLP210 P0003 60005 T00060006 10044 20006 58025 
METAR KGSO 191654Z 00000KT 1/2SM SN FG BKN008 OVC015 01/01 A3019 RMK AO2 TWR VIS 1 PRESFR SLP231 P0002 T00110006 
METAR KGSO 191654Z 00000KT 1/2SM SN FG BKN008 OVC015 01/01 A3019 RMK AO2 TWR VIS 1 PRESFR SLP231 P0002 T00110006 
SPECI KGSO 191637Z COR 04004KT 1SM -SN BR SCT028 OVC040 01/01 A3020 RMK AO2 PRESFR P0000 
SPECI KGSO 191637Z 04004KT 1SM SN BR SCT028 OVC040 01/01 A3020 RMK AO2 PRESFR P0000 
SPECI KGSO 191637Z COR 04004KT 1SM -SN BR SCT028 OVC040 01/01 A3020 RMK AO2 PRESFR P0000 
SPECI KGSO 191637Z 04004KT 1SM SN BR SCT028 OVC040 01/01 A3020 RMK AO2 PRESFR P0000 
SPECI KGSO 191630Z 06005KT 1 3/4SM -SN BR SCT028 OVC040 02/00 A3020 RMK AO2 VIS 1V3 PRESFR P0000 
SPECI KGSO 191630Z 06005KT 1 3/4SM -SN BR SCT028 OVC040 02/00 A3020 RMK AO2 VIS 1V3 PRESFR P0000 
SPECI KGSO 191607Z 09006KT 9SM -SN SCT028 OVC040 03/M01 A3020 RMK AO2 P0000 
SPECI KGSO 191607Z 09006KT 9SM -SN SCT028 OVC040 03/M01 A3020 RMK AO2 P0000 
METAR KGSO 191554Z 19003KT 7SM -SN BKN028 OVC034 04/M02 A3022 RMK AO2 SNB52 PRESFR SLP238 P0000 T00391017 
METAR KGSO 191554Z 19003KT 7SM -SN BKN028 OVC034 04/M02 A3022 RMK AO2 SNB52 PRESFR SLP238 P0000 T00391017 
SPECI KGSO 191513Z 10005KT 10SM BKN038 04/M01 A3019 RMK AO2 PRESRR 
SPECI KGSO 191513Z 10005KT 10SM BKN038 04/M01 A3019 RMK AO2 PRESRR 
METAR KGSO 191454Z 11007KT 10SM OVC028 04/M02 A3021 RMK AO2 PRESRR SLP235 T00391017 53018 
METAR KGSO 191454Z 11007KT 10SM OVC028 04/M02 A3021 RMK AO2 PRESRR SLP235 T00391017 53018 
SPECI KGSO 191447Z 10007KT 10SM OVC028 04/M02 A3021 RMK AO2 PRESRR 
SPECI KGSO 191447Z 10007KT 10SM OVC028 04/M02 A3021 RMK AO2 PRESRR 
METAR KGSO 191354Z 36003KT 10SM SCT044 OVC060 04/M01 A3019 RMK AO2 SLP228 T00391006 
METAR KGSO 191354Z 36003KT 10SM SCT044 OVC060 04/M01 A3019 RMK AO2 SLP228 T00391006 
METAR KGSO 191254Z 00000KT 7SM OVC065 03/M01 A3015 RMK AO2 SLP215 T00331006 
METAR KGSO 191254Z 00000KT 7SM OVC065 03/M01 A3015 RMK AO2 SLP215 T00331006 
METAR KGSO 191154Z 08003KT 7SM OVC060 03/M01 A3015 RMK AO2 PRESRR SLP213 T00281006 10033 20028 51003 
METAR KGSO 191154Z 08003KT 7SM OVC060 03/M01 A3015 RMK AO2 PRESRR SLP213 T00281006 10033 20028 51003 
METAR KGSO 191054Z 33003KT 10SM OVC070 03/M01 A3017 RMK AO2 PRESRR SLP220 T00331006 
METAR KGSO 191054Z 33003KT 10SM OVC070 03/M01 A3017 RMK AO2 PRESRR SLP220 T00331006 
METAR KGSO 190954Z 35003KT 10SM FEW110 OVC150 03/M01 A3016 RMK AO2 SLP216 T00331011 
METAR KGSO 190954Z 35003KT 10SM FEW110 OVC150 03/M01 A3016 RMK AO2 SLP216 T00331011 
METAR KGSO 190854Z 24004KT 10SM BKN090 03/M01 A3015 RMK AO2 SLP215 T00281011 58003 
METAR KGSO 190854Z 24004KT 10SM BKN090 03/M01 A3015 RMK AO2 SLP215 T00281011 58003 
METAR KGSO 190754Z 26005KT 10SM BKN095 03/M02 A3019 RMK AO2 PRESRR SLP228 T00281017 
METAR KGSO 190754Z 26005KT 10SM BKN095 03/M02 A3019 RMK AO2 PRESRR SLP228 T00281017 
METAR KGSO 190654Z 21004KT 10SM FEW120 OVC250 03/M02 A3015 RMK AO2 SLP214 T00281017 
METAR KGSO 190654Z 21004KT 10SM FEW120 OVC250 03/M02 A3015 RMK AO2 SLP214 T00281017 
METAR KGSO 190554Z 22005KT 10SM OVC150 03/M02 A3016 RMK AO2 PRESRR SLP219 T00281017 10033 20028 55001 
METAR KGSO 190554Z 22005KT 10SM OVC150 03/M02 A3016 RMK AO2 PRESRR SLP219 T00281017 10033 20028 55001 
METAR KGSO 190454Z 28003KT 10SM OVC150 03/M02 A3014 RMK AO2 PRESFR SLP210 T00281022 400441017 
METAR KGSO 190454Z 28003KT 10SM OVC150 03/M02 A3014 RMK AO2 PRESFR SLP210 T00281022 400441017 
METAR KGSO 190354Z COR 26004KT 10SM OVC150 03/M03 A3013 RMK AO2 SLP208 T00281028 
METAR KGSO 190354Z COR 26004KT 10SM OVC150 03/M03 A3013 RMK AO2 SLP208 T00281028 
METAR KGSO 190354Z 26004KT 10SM CLR 03/M03 A3013 RMK AO2 SLP208 T00281028 
METAR KGSO 190354Z 26004KT 10SM CLR 03/M03 A3013 RMK AO2 SLP208 T00281028 
METAR KGSO 190254Z 26006KT 10SM OVC150 03/M03 A3016 RMK AO2 PRESRR SLP218 T00331028 56006 
METAR KGSO 190254Z 26006KT 10SM OVC150 03/M03 A3016 RMK AO2 PRESRR SLP218 T00331028 56006 
METAR KGSO 190154Z 24006KT 10SM BKN090 03/M03 A3015 RMK AO2 PRESFR SLP216 T00331033 
METAR KGSO 190154Z 24006KT 10SM BKN090 03/M03 A3015 RMK AO2 PRESFR SLP216 T00331033 
METAR KGSO 190054Z 27006KT 10SM SCT090 03/M03 A3018 RMK AO2 PRESRR SLP226 T00331033 
METAR KGSO 190054Z 27006KT 10SM SCT090 03/M03 A3018 RMK AO2 PRESRR SLP226 T00331033 
METAR KGSO 182354Z 25005KT 10SM BKN100 03/M04 A3018 RMK AO2 PRESRR SLP224 T00331039 10044 20033 53002 
METAR KGSO 182354Z 25005KT 10SM BKN100 03/M04 A3018 RMK AO2 PRESRR SLP224 T00331039 10044 20033 53002 
METAR KGSO 182254Z 23004KT 10SM SCT010 OVC200 03/M04 A3015 RMK AO2 SLP216 T00331039 
METAR KGSO 182254Z 23004KT 10SM SCT010 OVC200 03/M04 A3015 RMK AO2 SLP216 T00331039 
METAR KGSO 182154Z 24006KT 10SM OVC200 04/M04 A3016 RMK AO2 SLP217 T00391044 
METAR KGSO 182154Z 24006KT 10SM OVC200 04/M04 A3016 RMK AO2 SLP217 T00391044 
METAR KGSO 182054Z 25008KT 10SM OVC200 04/M04 A3018 RMK AO2 SLP224 T00391044 56013 
METAR KGSO 182054Z 25008KT 10SM OVC200 04/M04 A3018 RMK AO2 SLP224 T00391044 56013 
METAR KGSO 181954Z 23008KT 10SM OVC200 04/M05 A3018 RMK AO2 SLP227 T00391050 
METAR KGSO 181954Z 23008KT 10SM OVC200 04/M05 A3018 RMK AO2 SLP227 T00391050 
METAR KGSO 181854Z 24006KT 10SM OVC200 04/M05 A3019 RMK AO2 SLP230 T00441050 
METAR KGSO 181854Z 24006KT 10SM OVC200 04/M05 A3019 RMK AO2 SLP230 T00441050 
METAR KGSO 181754Z 00000KT 10SM OVC200 03/M06 A3020 RMK AO2 SLP231 T00331056 10039 21017 58023 
METAR KGSO 181754Z 00000KT 10SM OVC200 03/M06 A3020 RMK AO2 SLP231 T00331056 10039 21017 58023 
METAR KGSO 181654Z VRB03KT 10SM OVC250 03/M06 A3023 RMK AO2 SLP241 T00331061 
METAR KGSO 181654Z VRB03KT 10SM OVC250 03/M06 A3023 RMK AO2 SLP241 T00331061 
METAR KGSO 181554Z 06004KT 10SM BKN250 03/M06 A3027 RMK AO2 SLP256 T00281061 
METAR KGSO 181554Z 06004KT 10SM BKN250 03/M06 A3027 RMK AO2 SLP256 T00281061 
METAR KGSO 181454Z 05006KT 10SM BKN250 02/M06 A3027 RMK AO2 SLP257 T00171061 51012 
METAR KGSO 181454Z 05006KT 10SM BKN250 02/M06 A3027 RMK AO2 SLP257 T00171061 51012 
METAR KGSO 181354Z 04005KT 10SM BKN250 01/M06 A3027 RMK AO2 SLP257 T00111056 
METAR KGSO 181354Z 04005KT 10SM BKN250 01/M06 A3027 RMK AO2 SLP257 T00111056 
METAR KGSO 181254Z 03005KT 10SM BKN250 M01/M06 A3025 RMK AO2 SLP249 T10061061 
METAR KGSO 181254Z 03005KT 10SM BKN250 M01/M06 A3025 RMK AO2 SLP249 T10061061 
METAR KGSO 181154Z 36004KT 10SM SCT010 SCT075 M01/M07 A3024 RMK AO2 SLP244 T10111067 10011 21011 53016 
METAR KGSO 181154Z 36004KT 10SM SCT010 SCT075 M01/M07 A3024 RMK AO2 SLP244 T10111067 10011 21011 53016 
METAR KGSO 181054Z 00000KT 10SM CLR M01/M07 A3022 RMK AO2 SLP237 T10111067 
METAR KGSO 181054Z 00000KT 10SM CLR M01/M07 A3022 RMK AO2 SLP237 T10111067